createdAt,value
2019-02-18T00:00:10.030Z,1017.16
2019-02-18T00:01:10.005Z,1017.18
2019-02-18T00:02:10.733Z,1017.17
2019-02-18T00:03:09.959Z,1017.15
2019-02-18T00:04:09.933Z,1017.13
2019-02-18T00:05:09.909Z,1017.11
2019-02-18T00:06:09.885Z,1017.11
2019-02-18T00:07:14.583Z,1017.14
2019-02-18T00:08:09.839Z,1017.12
2019-02-18T00:09:09.811Z,1017.12
2019-02-18T00:10:09.791Z,1017.13
2019-02-18T00:11:09.767Z,1017.13
2019-02-18T00:12:09.753Z,1017.12
2019-02-18T00:13:09.719Z,1017.11
2019-02-18T00:14:09.753Z,1017.12
2019-02-18T00:15:09.672Z,1017.12
2019-02-18T00:16:09.649Z,1017.08
2019-02-18T00:17:09.621Z,1017.09
2019-02-18T00:18:09.598Z,1017.11
2019-02-18T00:19:09.576Z,1017.09
2019-02-18T00:20:09.551Z,1017.07
2019-02-18T00:21:09.528Z,1017.07
2019-02-18T00:22:09.502Z,1017.08
2019-02-18T00:23:09.480Z,1017.07
2019-02-18T00:24:09.453Z,1017.07
2019-02-18T00:25:09.425Z,1017.08
2019-02-18T00:26:09.405Z,1017.06
2019-02-18T00:27:09.381Z,1017.01
2019-02-18T00:28:09.355Z,1017.07
2019-02-18T00:29:09.333Z,1017.04
2019-02-18T00:30:09.307Z,1017.03
2019-02-18T00:31:09.283Z,1017.00
2019-02-18T00:32:09.266Z,1017.01
2019-02-18T00:33:09.239Z,1017.00
2019-02-18T00:34:09.216Z,1017.00
2019-02-18T00:35:09.192Z,1016.98
2019-02-18T00:36:09.163Z,1016.92
2019-02-18T00:37:09.143Z,1016.92
2019-02-18T00:38:09.117Z,1016.89
2019-02-18T00:39:09.091Z,1016.95
2019-02-18T00:40:09.067Z,1016.95
2019-02-18T00:41:09.041Z,1016.91
2019-02-18T00:42:09.023Z,1016.92
2019-02-18T00:43:08.994Z,1016.94
2019-02-18T00:44:08.975Z,1016.95
2019-02-18T00:45:08.949Z,1016.94
2019-02-18T00:46:08.928Z,1016.96
2019-02-18T00:47:08.897Z,1016.95
2019-02-18T00:48:08.878Z,1016.97
2019-02-18T00:49:08.858Z,1016.98
2019-02-18T00:50:08.829Z,1016.95
2019-02-18T00:51:08.822Z,1016.97
2019-02-18T00:52:08.782Z,1016.99
2019-02-18T00:53:08.762Z,1017.00
2019-02-18T00:54:08.732Z,1016.98
2019-02-18T00:55:08.715Z,1016.99
2019-02-18T00:56:08.695Z,1016.91
2019-02-18T00:57:08.656Z,1016.91
2019-02-18T00:58:08.633Z,1016.88
2019-02-18T00:59:08.613Z,1016.92
2019-02-18T01:00:08.587Z,1016.89
2019-02-18T01:01:08.562Z,1016.85
2019-02-18T01:02:08.543Z,1016.93
2019-02-18T01:03:08.517Z,1016.92
2019-02-18T01:04:08.492Z,1016.92
2019-02-18T01:05:08.471Z,1016.92
2019-02-18T01:06:08.441Z,1016.90
2019-02-18T01:07:08.415Z,1016.93
2019-02-18T01:08:08.394Z,1016.94
2019-02-18T01:09:08.375Z,1016.95
2019-02-18T01:10:08.354Z,1016.97
2019-02-18T01:11:08.319Z,1016.91
2019-02-18T01:12:08.294Z,1016.94
2019-02-18T01:13:08.341Z,1016.92
2019-02-18T01:14:08.253Z,1016.87
2019-02-18T01:15:08.267Z,1016.89
2019-02-18T01:16:08.200Z,1016.85
2019-02-18T01:17:08.183Z,1016.86
2019-02-18T01:18:08.154Z,1016.83
2019-02-18T01:19:08.132Z,1016.86
2019-02-18T01:20:08.108Z,1016.83
2019-02-18T01:21:08.085Z,1016.81
2019-02-18T01:22:08.055Z,1016.78
2019-02-18T01:23:08.038Z,1016.78
2019-02-18T01:24:08.004Z,1016.80
2019-02-18T01:25:07.986Z,1016.77
2019-02-18T01:26:07.999Z,1016.74
2019-02-18T01:27:07.934Z,1016.73
2019-02-18T01:28:07.912Z,1016.75
2019-02-18T01:29:07.891Z,1016.74
2019-02-18T01:30:07.871Z,1016.80
2019-02-18T01:31:07.838Z,1016.72
2019-02-18T01:32:07.817Z,1016.74
2019-02-18T01:33:07.788Z,1016.78
2019-02-18T01:34:07.775Z,1016.75
2019-02-18T01:35:07.748Z,1016.79
2019-02-18T01:36:07.716Z,1016.77
2019-02-18T01:37:07.696Z,1016.77
2019-02-18T01:38:07.670Z,1016.84
2019-02-18T01:39:07.681Z,1016.78
2019-02-18T01:40:07.620Z,1016.82
2019-02-18T01:41:07.602Z,1016.80
2019-02-18T01:42:07.576Z,1016.80
2019-02-18T01:43:07.550Z,1016.80
2019-02-18T01:44:07.528Z,1016.77
2019-02-18T01:45:07.501Z,1016.76
2019-02-18T01:46:07.476Z,1016.75
2019-02-18T01:47:07.458Z,1016.72
2019-02-18T01:48:07.424Z,1016.69
2019-02-18T01:49:07.401Z,1016.69
2019-02-18T01:50:07.380Z,1016.67
2019-02-18T01:51:07.360Z,1016.67
2019-02-18T01:52:07.330Z,1016.61
2019-02-18T01:54:07.282Z,1016.60
2019-02-18T01:55:07.260Z,1016.59
2019-02-18T01:56:07.236Z,1016.60
2019-02-18T01:57:07.212Z,1016.57
2019-02-18T01:58:07.187Z,1016.59
2019-02-18T01:59:07.166Z,1016.59
2019-02-18T02:00:07.142Z,1016.59
2019-02-18T02:01:07.117Z,1016.59
2019-02-18T02:02:07.089Z,1016.61
2019-02-18T02:03:07.068Z,1016.64
2019-02-18T02:04:07.042Z,1016.60
2019-02-18T02:05:07.018Z,1016.57
2019-02-18T02:06:06.997Z,1016.54
2019-02-18T02:07:06.969Z,1016.57
2019-02-18T02:08:06.944Z,1016.55
2019-02-18T02:09:06.923Z,1016.54
2019-02-18T02:10:06.947Z,1016.53
2019-02-18T02:11:06.870Z,1016.48
2019-02-18T02:12:06.849Z,1016.48
2019-02-18T02:13:06.823Z,1016.46
2019-02-18T02:14:06.804Z,1016.46
2019-02-18T02:15:06.774Z,1016.47
2019-02-18T02:16:06.748Z,1016.48
2019-02-18T02:17:06.723Z,1016.44
2019-02-18T02:18:06.708Z,1016.47
2019-02-18T02:19:06.678Z,1016.43
2019-02-18T02:20:06.657Z,1016.43
2019-02-18T02:21:06.629Z,1016.42
2019-02-18T02:22:06.603Z,1016.43
2019-02-18T02:23:06.583Z,1016.44
2019-02-18T02:24:06.566Z,1016.42
2019-02-18T02:25:06.537Z,1016.46
2019-02-18T02:26:06.510Z,1016.43
2019-02-18T02:27:06.486Z,1016.41
2019-02-18T02:28:06.455Z,1016.44
2019-02-18T02:29:06.434Z,1016.41
2019-02-18T02:30:06.411Z,1016.37
2019-02-18T02:31:06.382Z,1016.41
2019-02-18T02:32:06.359Z,1016.40
2019-02-18T02:33:06.337Z,1016.39
2019-02-18T02:34:06.311Z,1016.39
2019-02-18T02:35:06.287Z,1016.40
2019-02-18T02:36:06.270Z,1016.36
2019-02-18T02:37:06.241Z,1016.38
2019-02-18T02:38:07.973Z,1016.36
2019-02-18T02:39:06.192Z,1016.32
2019-02-18T02:40:06.173Z,1016.36
2019-02-18T02:41:06.150Z,1016.38
2019-02-18T02:42:06.130Z,1016.31
2019-02-18T02:43:06.091Z,1016.34
2019-02-18T02:44:06.071Z,1016.34
2019-02-18T02:45:06.047Z,1016.32
2019-02-18T02:46:06.027Z,1016.30
2019-02-18T02:47:05.997Z,1016.33
2019-02-18T02:48:05.975Z,1016.32
2019-02-18T02:49:05.956Z,1016.33
2019-02-18T02:50:05.942Z,1016.33
2019-02-18T02:51:05.900Z,1016.32
2019-02-18T02:52:05.873Z,1016.32
2019-02-18T02:53:06.160Z,1016.35
2019-02-18T02:54:05.826Z,1016.33
2019-02-18T02:55:05.802Z,1016.27
2019-02-18T02:56:05.781Z,1016.30
2019-02-18T02:57:05.753Z,1016.26
2019-02-18T02:58:05.729Z,1016.27
2019-02-18T02:59:05.709Z,1016.21
2019-02-18T03:00:05.685Z,1016.19
2019-02-18T03:01:05.659Z,1016.21
2019-02-18T03:02:05.629Z,1016.16
2019-02-18T03:03:05.610Z,1016.13
2019-02-18T03:04:05.583Z,1016.13
2019-02-18T03:05:05.562Z,1016.12
2019-02-18T03:06:05.533Z,1016.16
2019-02-18T03:07:05.509Z,1016.13
2019-02-18T03:08:05.485Z,1016.15
2019-02-18T03:09:05.459Z,1016.15
2019-02-18T03:10:05.431Z,1016.21
2019-02-18T03:11:05.409Z,1016.20
2019-02-18T03:12:05.389Z,1016.20
2019-02-18T03:13:05.364Z,1016.26
2019-02-18T03:14:05.346Z,1016.20
2019-02-18T03:15:05.313Z,1016.22
2019-02-18T03:16:05.288Z,1016.22
2019-02-18T03:17:05.264Z,1016.24
2019-02-18T03:18:05.242Z,1016.22
2019-02-18T03:19:05.215Z,1016.19
2019-02-18T03:20:05.200Z,1016.19
2019-02-18T03:21:05.215Z,1016.20
2019-02-18T03:22:05.131Z,1016.21
2019-02-18T03:23:05.115Z,1016.20
2019-02-18T03:24:05.092Z,1016.21
2019-02-18T03:25:05.069Z,1016.18
2019-02-18T03:26:05.045Z,1016.20
2019-02-18T03:27:05.014Z,1016.22
2019-02-18T03:28:04.995Z,1016.19
2019-02-18T03:29:04.971Z,1016.24
2019-02-18T03:30:04.996Z,1016.25
2019-02-18T03:31:04.931Z,1016.23
2019-02-18T03:32:04.901Z,1016.21
2019-02-18T03:33:04.873Z,1016.22
2019-02-18T03:34:04.851Z,1016.27
2019-02-18T03:35:04.823Z,1016.26
2019-02-18T03:36:04.865Z,1016.25
2019-02-18T03:37:04.776Z,1016.22
2019-02-18T03:38:04.750Z,1016.22
2019-02-18T03:39:04.722Z,1016.22
2019-02-18T03:40:04.704Z,1016.23
2019-02-18T03:41:04.675Z,1016.25
2019-02-18T03:42:04.653Z,1016.25
2019-02-18T03:43:04.625Z,1016.24
2019-02-18T03:44:04.607Z,1016.23
2019-02-18T03:45:04.580Z,1016.23
2019-02-18T03:46:04.553Z,1016.24
2019-02-18T03:47:04.534Z,1016.25
2019-02-18T03:48:04.517Z,1016.30
2019-02-18T03:49:04.482Z,1016.29
2019-02-18T03:50:04.454Z,1016.28
2019-02-18T03:51:04.428Z,1016.28
2019-02-18T03:52:04.404Z,1016.27
2019-02-18T03:53:04.384Z,1016.29
2019-02-18T03:54:04.356Z,1016.28
2019-02-18T03:55:04.336Z,1016.24
2019-02-18T03:56:04.316Z,1016.26
2019-02-18T03:57:04.290Z,1016.23
2019-02-18T03:58:04.258Z,1016.24
2019-02-18T03:59:04.235Z,1016.24
2019-02-18T04:00:04.249Z,1016.22
2019-02-18T04:01:04.186Z,1016.24
2019-02-18T04:02:04.164Z,1016.22
2019-02-18T04:03:04.136Z,1016.18
2019-02-18T04:04:04.110Z,1016.16
2019-02-18T04:05:04.090Z,1016.16
2019-02-18T04:06:04.059Z,1016.12
2019-02-18T04:07:04.036Z,1016.17
2019-02-18T04:08:04.016Z,1016.12
2019-02-18T04:09:03.988Z,1016.14
2019-02-18T04:10:03.962Z,1016.18
2019-02-18T04:11:03.941Z,1016.17
2019-02-18T04:12:03.911Z,1016.18
2019-02-18T04:13:03.892Z,1016.18
2019-02-18T04:14:03.862Z,1016.18
2019-02-18T04:15:03.842Z,1016.18
2019-02-18T04:16:03.814Z,1016.22
2019-02-18T04:17:03.795Z,1016.20
2019-02-18T04:18:03.768Z,1016.17
2019-02-18T04:19:03.744Z,1016.19
2019-02-18T04:20:03.717Z,1016.21
2019-02-18T04:21:03.692Z,1016.15
2019-02-18T04:22:03.668Z,1016.17
2019-02-18T04:23:03.643Z,1016.21
2019-02-18T04:24:03.642Z,1016.17
2019-02-18T04:25:03.596Z,1016.19
2019-02-18T04:26:03.570Z,1016.20
2019-02-18T04:27:03.551Z,1016.18
2019-02-18T04:28:03.520Z,1016.23
2019-02-18T04:29:03.498Z,1016.25
2019-02-18T04:30:03.476Z,1016.20
2019-02-18T04:31:03.447Z,1016.17
2019-02-18T04:32:03.426Z,1016.16
2019-02-18T04:33:03.397Z,1016.15
2019-02-18T04:34:03.377Z,1016.20
2019-02-18T04:35:03.347Z,1016.20
2019-02-18T04:36:03.321Z,1016.18
2019-02-18T04:37:03.299Z,1016.17
2019-02-18T04:38:03.274Z,1016.12
2019-02-18T04:39:03.257Z,1016.14
2019-02-18T04:40:03.232Z,1016.10
2019-02-18T04:41:03.201Z,1016.11
2019-02-18T04:42:03.178Z,1016.09
2019-02-18T04:43:03.151Z,1016.14
2019-02-18T04:44:03.131Z,1016.14
2019-02-18T04:45:03.106Z,1016.11
2019-02-18T04:46:03.077Z,1016.14
2019-02-18T04:47:03.052Z,1016.12
2019-02-18T04:48:03.026Z,1016.12
2019-02-18T04:49:03.014Z,1016.12
2019-02-18T04:50:02.981Z,1016.12
2019-02-18T04:51:02.961Z,1016.11
2019-02-18T04:52:02.931Z,1016.12
2019-02-18T04:53:02.908Z,1016.12
2019-02-18T04:54:02.879Z,1016.11
2019-02-18T04:55:02.854Z,1016.13
2019-02-18T04:56:02.848Z,1016.12
2019-02-18T04:57:02.805Z,1016.08
2019-02-18T04:58:05.834Z,1016.12
2019-02-18T04:59:02.764Z,1016.12
2019-02-18T05:00:02.790Z,1016.16
2019-02-18T05:01:03.052Z,1016.18
2019-02-18T05:02:02.688Z,1016.13
2019-02-18T05:03:02.654Z,1016.13
2019-02-18T05:04:02.631Z,1016.08
2019-02-18T05:05:02.609Z,1016.09
2019-02-18T05:06:02.584Z,1016.08
2019-02-18T05:07:02.574Z,1016.06
2019-02-18T05:08:02.561Z,1016.05
2019-02-18T05:09:05.358Z,1016.00
2019-02-18T05:10:02.482Z,1016.02
2019-02-18T05:11:02.465Z,1015.96
2019-02-18T05:12:02.433Z,1015.95
2019-02-18T05:13:02.414Z,1015.95
2019-02-18T05:14:02.385Z,1015.99
2019-02-18T05:15:02.359Z,1015.98
2019-02-18T05:16:02.339Z,1015.97
2019-02-18T05:17:02.311Z,1016.00
2019-02-18T05:18:02.360Z,1015.94
2019-02-18T05:19:02.264Z,1015.92
2019-02-18T05:20:02.242Z,1015.92
2019-02-18T05:21:02.214Z,1015.90
2019-02-18T05:22:02.214Z,1015.89
2019-02-18T05:23:02.157Z,1015.89
2019-02-18T05:24:02.139Z,1015.88
2019-02-18T05:25:02.110Z,1015.88
2019-02-18T05:26:02.089Z,1015.83
2019-02-18T05:27:02.064Z,1015.85
2019-02-18T05:28:02.043Z,1015.83
2019-02-18T05:29:02.017Z,1015.84
2019-02-18T05:30:01.985Z,1015.84
2019-02-18T05:31:01.972Z,1015.85
2019-02-18T05:32:01.936Z,1015.81
2019-02-18T05:33:01.914Z,1015.85
2019-02-18T05:34:01.889Z,1015.88
2019-02-18T05:35:01.865Z,1015.88
2019-02-18T05:36:01.840Z,1015.86
2019-02-18T05:37:01.820Z,1015.87
2019-02-18T05:38:01.791Z,1015.83
2019-02-18T05:39:01.768Z,1015.84
2019-02-18T05:40:01.747Z,1015.88
2019-02-18T05:41:01.716Z,1015.84
2019-02-18T05:42:01.702Z,1015.85
2019-02-18T05:43:01.665Z,1015.86
2019-02-18T05:44:01.643Z,1015.86
2019-02-18T05:45:01.620Z,1015.85
2019-02-18T05:46:01.593Z,1015.85
2019-02-18T05:47:01.565Z,1015.89
2019-02-18T05:48:01.545Z,1015.87
2019-02-18T05:49:01.516Z,1015.86
2019-02-18T05:50:01.498Z,1015.86
2019-02-18T05:51:01.473Z,1015.91
2019-02-18T05:52:01.448Z,1015.89
2019-02-18T05:53:01.421Z,1015.90
2019-02-18T05:54:01.398Z,1015.92
2019-02-18T05:55:01.436Z,1015.91
2019-02-18T05:56:01.356Z,1015.89
2019-02-18T05:57:01.326Z,1015.91
2019-02-18T05:58:01.295Z,1015.88
2019-02-18T05:59:01.281Z,1015.93
2019-02-18T06:00:01.246Z,1015.95
2019-02-18T06:01:01.225Z,1015.96
2019-02-18T06:02:01.200Z,1015.98
2019-02-18T06:03:01.173Z,1015.98
2019-02-18T06:04:01.145Z,1016.00
2019-02-18T06:05:01.122Z,1016.01
2019-02-18T06:06:01.096Z,1016.04
2019-02-18T06:07:01.075Z,1016.03
2019-02-18T06:08:01.052Z,1016.00
2019-02-18T06:09:01.025Z,1015.96
2019-02-18T06:10:00.996Z,1016.00
2019-02-18T06:11:00.973Z,1016.01
2019-02-18T06:12:00.946Z,1016.02
2019-02-18T06:13:00.923Z,1015.99
2019-02-18T06:14:00.897Z,1016.01
2019-02-18T06:15:00.871Z,1015.96
2019-02-18T06:16:00.855Z,1015.92
2019-02-18T06:17:02.742Z,1015.96
2019-02-18T06:18:00.796Z,1015.96
2019-02-18T06:19:00.789Z,1015.97
2019-02-18T06:20:00.746Z,1015.95
2019-02-18T06:21:00.724Z,1015.98
2019-02-18T06:22:00.696Z,1015.96
2019-02-18T06:23:00.668Z,1015.98
2019-02-18T06:24:00.651Z,1015.97
2019-02-18T06:25:00.627Z,1015.95
2019-02-18T06:26:00.608Z,1015.94
2019-02-18T06:27:00.576Z,1015.96
2019-02-18T06:28:00.552Z,1015.99
2019-02-18T06:29:00.520Z,1016.00
2019-02-18T06:30:00.499Z,1016.01
2019-02-18T06:31:00.472Z,1015.99
2019-02-18T06:32:00.454Z,1016.03
2019-02-18T06:33:01.212Z,1016.01
2019-02-18T06:34:00.396Z,1016.06
2019-02-18T06:35:00.370Z,1016.04
2019-02-18T06:36:00.348Z,1016.09
2019-02-18T06:37:00.323Z,1016.07
2019-02-18T06:38:00.307Z,1016.11
2019-02-18T06:39:00.282Z,1016.11
2019-02-18T06:40:00.351Z,1016.10
2019-02-18T06:41:00.233Z,1016.11
2019-02-18T06:42:00.200Z,1016.16
2019-02-18T06:43:00.176Z,1016.16
2019-02-18T06:44:00.148Z,1016.15
2019-02-18T06:45:00.291Z,1016.17
2019-02-18T06:46:00.100Z,1016.18
2019-02-18T06:47:00.069Z,1016.19
2019-02-18T06:48:00.049Z,1016.19
2019-02-18T06:49:00.022Z,1016.17
2019-02-18T06:49:59.997Z,1016.17
2019-02-18T06:50:59.975Z,1016.21
2019-02-18T06:51:59.950Z,1016.23
2019-02-18T06:52:59.930Z,1016.23
2019-02-18T06:53:59.900Z,1016.22
2019-02-18T06:54:59.876Z,1016.26
2019-02-18T06:55:59.856Z,1016.24
2019-02-18T06:56:59.824Z,1016.29
2019-02-18T06:57:59.802Z,1016.28
2019-02-18T06:58:59.774Z,1016.28
2019-02-18T06:59:59.756Z,1016.30
2019-02-18T07:00:59.731Z,1016.29
2019-02-18T07:01:59.705Z,1016.36
2019-02-18T07:02:59.679Z,1016.37
2019-02-18T07:03:59.649Z,1016.36
2019-02-18T07:04:59.632Z,1016.37
2019-02-18T07:05:59.600Z,1016.39
2019-02-18T07:06:59.583Z,1016.42
2019-02-18T07:07:59.550Z,1016.38
2019-02-18T07:08:59.528Z,1016.35
2019-02-18T07:09:59.502Z,1016.37
2019-02-18T07:10:59.475Z,1016.35
2019-02-18T07:11:59.462Z,1016.38
2019-02-18T07:12:59.426Z,1016.39
2019-02-18T07:13:59.402Z,1016.42
2019-02-18T07:14:59.381Z,1016.40
2019-02-18T07:15:59.353Z,1016.39
2019-02-18T07:16:59.331Z,1016.42
2019-02-18T07:17:59.302Z,1016.34
2019-02-18T07:18:59.278Z,1016.39
2019-02-18T07:19:59.257Z,1016.39
2019-02-18T07:20:59.230Z,1016.40
2019-02-18T07:21:59.201Z,1016.41
2019-02-18T07:22:59.177Z,1016.36
2019-02-18T07:23:59.156Z,1016.44
2019-02-18T07:24:59.129Z,1016.40
2019-02-18T07:25:59.105Z,1016.42
2019-02-18T07:26:59.080Z,1016.42
2019-02-18T07:27:59.055Z,1016.44
2019-02-18T07:28:59.031Z,1016.45
2019-02-18T07:29:59.010Z,1016.42
2019-02-18T07:30:58.989Z,1016.42
2019-02-18T07:31:58.957Z,1016.45
2019-02-18T07:32:58.933Z,1016.44
2019-02-18T07:33:58.915Z,1016.44
2019-02-18T07:34:58.885Z,1016.35
2019-02-18T07:35:58.869Z,1016.38
2019-02-18T07:36:58.837Z,1016.38
2019-02-18T07:37:58.820Z,1016.39
2019-02-18T07:38:58.786Z,1016.45
2019-02-18T07:40:01.480Z,1016.44
2019-02-18T07:40:58.739Z,1016.41
2019-02-18T07:41:58.719Z,1016.40
2019-02-18T07:42:58.692Z,1016.48
2019-02-18T07:43:58.664Z,1016.45
2019-02-18T07:44:58.642Z,1016.44
2019-02-18T07:45:58.617Z,1016.46
2019-02-18T07:46:58.587Z,1016.46
2019-02-18T07:47:58.569Z,1016.45
2019-02-18T07:48:58.544Z,1016.53
2019-02-18T07:49:58.517Z,1016.44
2019-02-18T07:50:58.494Z,1016.49
2019-02-18T07:51:58.465Z,1016.45
2019-02-18T07:52:58.449Z,1016.46
2019-02-18T07:53:58.421Z,1016.50
2019-02-18T07:54:58.397Z,1016.50
2019-02-18T07:55:58.367Z,1016.47
2019-02-18T07:56:58.347Z,1016.52
2019-02-18T07:57:58.325Z,1016.58
2019-02-18T07:58:58.299Z,1016.58
2019-02-18T07:59:58.277Z,1016.61
2019-02-18T08:00:58.259Z,1016.64
2019-02-18T08:01:58.229Z,1016.64
2019-02-18T08:02:58.198Z,1016.67
2019-02-18T08:03:58.177Z,1016.69
2019-02-18T08:04:58.155Z,1016.70
2019-02-18T08:05:58.139Z,1016.69
2019-02-18T08:06:58.105Z,1016.67
2019-02-18T08:07:58.082Z,1016.68
2019-02-18T08:08:58.059Z,1016.73
2019-02-18T08:09:58.039Z,1016.72
2019-02-18T08:10:58.007Z,1016.72
2019-02-18T08:11:57.991Z,1016.67
2019-02-18T08:12:57.968Z,1016.68
2019-02-18T08:13:57.947Z,1016.71
2019-02-18T08:14:57.919Z,1016.67
2019-02-18T08:15:57.894Z,1016.66
2019-02-18T08:16:57.876Z,1016.71
2019-02-18T08:17:57.851Z,1016.70
2019-02-18T08:18:57.824Z,1016.77
2019-02-18T08:19:57.800Z,1016.70
2019-02-18T08:20:57.780Z,1016.72
2019-02-18T08:21:57.758Z,1016.72
2019-02-18T08:22:57.740Z,1016.77
2019-02-18T08:24:00.245Z,1016.73
2019-02-18T08:24:57.692Z,1016.73
2019-02-18T08:25:57.670Z,1016.77
2019-02-18T08:26:57.644Z,1016.78
2019-02-18T08:27:57.622Z,1016.80
2019-02-18T08:28:57.603Z,1016.83
2019-02-18T08:29:57.578Z,1016.83
2019-02-18T08:30:57.559Z,1016.81
2019-02-18T08:31:57.537Z,1016.85
2019-02-18T08:32:57.513Z,1016.80
2019-02-18T08:33:57.492Z,1016.78
2019-02-18T08:34:57.471Z,1016.84
2019-02-18T08:35:57.450Z,1016.90
2019-02-18T08:36:57.435Z,1016.84
2019-02-18T08:37:57.415Z,1016.84
2019-02-18T08:38:57.390Z,1016.84
2019-02-18T08:39:57.367Z,1016.85
2019-02-18T08:40:57.348Z,1016.87
2019-02-18T08:41:57.326Z,1016.87
2019-02-18T08:42:57.306Z,1016.88
2019-02-18T08:43:57.288Z,1016.88
2019-02-18T08:44:57.269Z,1016.85
2019-02-18T08:45:57.246Z,1016.87
2019-02-18T08:46:57.228Z,1016.89
2019-02-18T08:47:57.208Z,1016.89
2019-02-18T08:48:57.192Z,1016.88
2019-02-18T08:49:57.170Z,1016.86
2019-02-18T08:50:57.156Z,1016.93
2019-02-18T08:51:57.196Z,1016.91
2019-02-18T08:52:57.113Z,1016.93
2019-02-18T08:53:57.096Z,1016.95
2019-02-18T08:54:57.095Z,1016.93
2019-02-18T08:55:57.065Z,1016.91
2019-02-18T08:56:57.047Z,1016.91
2019-02-18T08:57:57.024Z,1016.90
2019-02-18T08:58:57.011Z,1016.84
2019-02-18T08:59:56.990Z,1016.83
2019-02-18T09:01:02.616Z,1016.82
2019-02-18T09:01:56.964Z,1016.83
2019-02-18T09:02:56.937Z,1016.86
2019-02-18T09:03:56.924Z,1016.89
2019-02-18T09:04:56.906Z,1016.84
2019-02-18T09:05:56.893Z,1016.83
2019-02-18T09:06:56.870Z,1016.77
2019-02-18T09:07:56.854Z,1016.79
2019-02-18T09:08:56.836Z,1016.76
2019-02-18T09:09:56.820Z,1016.74
2019-02-18T09:10:56.802Z,1016.72
2019-02-18T09:11:56.784Z,1016.74
2019-02-18T09:12:56.773Z,1016.70
2019-02-18T09:13:56.750Z,1016.67
2019-02-18T09:14:56.733Z,1016.73
2019-02-18T09:16:00.054Z,1016.70
2019-02-18T09:16:56.697Z,1016.71
2019-02-18T09:17:56.684Z,1016.68
2019-02-18T09:18:56.660Z,1016.72
2019-02-18T09:19:56.650Z,1016.68
2019-02-18T09:20:56.629Z,1016.66
2019-02-18T09:21:56.614Z,1016.68
2019-02-18T09:22:56.591Z,1016.64
2019-02-18T09:23:56.579Z,1016.67
2019-02-18T09:24:56.557Z,1016.68
2019-02-18T09:25:56.549Z,1016.73
2019-02-18T09:26:56.520Z,1016.79
2019-02-18T09:27:56.503Z,1016.81
2019-02-18T09:28:56.488Z,1016.93
2019-02-18T09:29:56.468Z,1016.96
2019-02-18T09:30:56.471Z,1016.95
2019-02-18T09:31:56.432Z,1016.95
2019-02-18T09:32:56.417Z,1016.95
2019-02-18T09:33:56.394Z,1017.02
2019-02-18T09:35:01.933Z,1017.28
2019-02-18T09:35:56.363Z,1017.29
2019-02-18T09:36:56.359Z,1017.06
2019-02-18T09:37:56.338Z,1016.99
2019-02-18T09:38:56.310Z,1016.96
2019-02-18T09:39:56.297Z,1016.96
2019-02-18T09:40:56.283Z,1017.01
2019-02-18T09:41:56.277Z,1017.08
2019-02-18T09:42:56.251Z,1017.28
2019-02-18T09:43:56.240Z,1017.41
2019-02-18T09:44:56.233Z,1017.41
2019-02-18T09:45:56.208Z,1017.39
2019-02-18T09:46:56.190Z,1017.40
2019-02-18T09:47:56.178Z,1017.34
2019-02-18T09:48:56.163Z,1017.39
2019-02-18T09:49:56.149Z,1017.32
2019-02-18T09:50:56.135Z,1017.37
2019-02-18T09:51:56.123Z,1017.36
2019-02-18T09:52:56.112Z,1017.35
2019-02-18T09:53:56.098Z,1017.36
2019-02-18T09:54:56.085Z,1017.35
2019-02-18T09:55:56.077Z,1017.31
2019-02-18T09:56:56.064Z,1017.30
2019-02-18T09:57:56.048Z,1017.36
2019-02-18T09:58:56.036Z,1017.36
2019-02-18T09:59:56.027Z,1017.38
2019-02-18T10:00:56.020Z,1017.39
2019-02-18T10:01:56.002Z,1017.33
2019-02-18T10:02:55.991Z,1017.34
2019-02-18T10:03:55.984Z,1017.41
2019-02-18T10:04:55.971Z,1017.43
2019-02-18T10:05:56.043Z,1017.38
2019-02-18T10:06:55.950Z,1017.40
2019-02-18T10:07:55.944Z,1017.52
2019-02-18T10:08:55.941Z,1017.57
2019-02-18T10:09:55.922Z,1017.56
2019-02-18T10:10:56.456Z,1017.43
2019-02-18T10:11:55.910Z,1017.44
2019-02-18T10:12:55.897Z,1017.50
2019-02-18T10:13:55.892Z,1017.49
2019-02-18T10:14:55.878Z,1017.49
2019-02-18T10:15:55.872Z,1017.59
2019-02-18T10:16:55.869Z,1017.60
2019-02-18T10:17:55.858Z,1017.66
2019-02-18T10:18:55.842Z,1017.77
2019-02-18T10:19:55.834Z,1017.76
2019-02-18T10:20:55.827Z,1017.69
2019-02-18T10:21:55.819Z,1017.63
2019-02-18T10:22:55.810Z,1017.57
2019-02-18T10:23:55.807Z,1017.09
2019-02-18T10:24:55.798Z,1016.81
2019-02-18T10:25:55.787Z,1016.78
2019-02-18T10:26:55.776Z,1016.74
2019-02-18T10:27:55.769Z,1016.71
2019-02-18T10:28:55.772Z,1016.71
2019-02-18T10:29:55.756Z,1016.67
2019-02-18T10:30:55.747Z,1016.68
2019-02-18T10:31:55.735Z,1016.68
2019-02-18T10:32:55.730Z,1016.67
2019-02-18T10:33:55.716Z,1016.64
2019-02-18T10:34:55.710Z,1016.64
2019-02-18T10:35:55.702Z,1016.61
2019-02-18T10:36:55.696Z,1016.57
2019-02-18T10:37:55.691Z,1016.56
2019-02-18T10:38:55.675Z,1016.53
2019-02-18T10:39:55.664Z,1016.57
2019-02-18T10:41:06.097Z,1016.53
2019-02-18T10:41:55.647Z,1016.50
2019-02-18T10:42:55.637Z,1016.48
2019-02-18T10:43:55.628Z,1016.48
2019-02-18T10:44:55.616Z,1016.48
2019-02-18T10:45:55.609Z,1016.44
2019-02-18T10:46:55.597Z,1016.45
2019-02-18T10:47:55.593Z,1016.46
2019-02-18T10:48:55.578Z,1016.42
2019-02-18T10:49:55.572Z,1016.39
2019-02-18T10:50:55.555Z,1016.40
2019-02-18T10:51:55.557Z,1016.38
2019-02-18T10:52:55.541Z,1016.33
2019-02-18T10:53:55.525Z,1016.32
2019-02-18T10:54:55.599Z,1016.30
2019-02-18T10:55:55.506Z,1016.35
2019-02-18T10:56:55.497Z,1016.34
2019-02-18T10:57:55.490Z,1016.36
2019-02-18T10:58:55.478Z,1016.32
2019-02-18T10:59:55.464Z,1016.31
2019-02-18T11:00:55.456Z,1016.29
2019-02-18T11:01:55.442Z,1016.28
2019-02-18T11:02:55.433Z,1016.25
2019-02-18T11:03:55.423Z,1016.23
2019-02-18T11:04:55.412Z,1016.23
2019-02-18T11:05:55.400Z,1016.21
2019-02-18T11:06:55.387Z,1016.26
2019-02-18T11:07:55.377Z,1016.23
2019-02-18T11:08:55.390Z,1016.18
2019-02-18T11:09:55.355Z,1016.20
2019-02-18T11:10:55.348Z,1016.15
2019-02-18T11:11:55.337Z,1016.20
2019-02-18T11:12:55.328Z,1016.16
2019-02-18T11:13:55.310Z,1016.14
2019-02-18T11:14:55.302Z,1016.15
2019-02-18T11:15:55.290Z,1016.13
2019-02-18T11:16:55.280Z,1016.09
2019-02-18T11:17:55.265Z,1016.13
2019-02-18T11:18:55.254Z,1016.08
2019-02-18T11:19:55.247Z,1016.09
2019-02-18T11:20:55.239Z,1016.06
2019-02-18T11:21:55.220Z,1016.04
2019-02-18T11:22:55.204Z,1015.99
2019-02-18T11:23:55.198Z,1015.97
2019-02-18T11:24:55.187Z,1015.97
2019-02-18T11:25:55.174Z,1015.96
2019-02-18T11:26:55.173Z,1015.95
2019-02-18T11:27:55.150Z,1015.92
2019-02-18T11:28:55.141Z,1015.91
2019-02-18T11:29:55.130Z,1015.88
2019-02-18T11:30:55.116Z,1015.84
2019-02-18T11:31:55.099Z,1015.85
2019-02-18T11:32:55.097Z,1015.84
2019-02-18T11:33:55.077Z,1015.83
2019-02-18T11:34:55.066Z,1015.82
2019-02-18T11:35:55.055Z,1015.79
2019-02-18T11:36:55.050Z,1015.81
2019-02-18T11:37:55.030Z,1015.84
2019-02-18T11:38:55.020Z,1015.82
2019-02-18T11:39:55.008Z,1015.80
2019-02-18T11:40:54.998Z,1015.83
2019-02-18T11:41:54.986Z,1015.81
2019-02-18T11:42:54.974Z,1015.76
2019-02-18T11:43:54.963Z,1015.78
2019-02-18T11:44:54.950Z,1015.74
2019-02-18T11:45:54.940Z,1015.72
2019-02-18T11:46:54.929Z,1015.72
2019-02-18T11:47:54.957Z,1015.73
2019-02-18T11:48:54.898Z,1015.73
2019-02-18T11:49:55.330Z,1015.73
2019-02-18T11:50:54.880Z,1015.69
2019-02-18T11:51:54.864Z,1015.70
2019-02-18T11:52:54.848Z,1015.68
2019-02-18T11:53:54.838Z,1015.63
2019-02-18T11:54:54.826Z,1015.61
2019-02-18T11:55:54.810Z,1015.56
2019-02-18T11:56:54.805Z,1015.57
2019-02-18T11:57:54.793Z,1015.56
2019-02-18T11:58:54.776Z,1015.59
2019-02-18T11:59:54.774Z,1015.55
2019-02-18T12:00:54.757Z,1015.52
2019-02-18T12:01:54.742Z,1015.51
2019-02-18T12:03:02.829Z,1015.49
2019-02-18T12:03:54.718Z,1015.46
2019-02-18T12:04:54.705Z,1015.49
2019-02-18T12:05:54.688Z,1015.45